createdAt,value
2023-02-16T00:00:57.601Z,-2.38
2023-02-16T00:03:38.907Z,-2.43
2023-02-16T00:06:07.469Z,-2.48
2023-02-16T00:08:35.748Z,-2.53
2023-02-16T00:11:22.967Z,-2.57
2023-02-16T00:13:53.317Z,-2.62
2023-02-16T00:16:23.005Z,-2.66
2023-02-16T00:18:52.198Z,-2.70
2023-02-16T00:21:20.270Z,-2.72
2023-02-16T00:23:51.109Z,-2.73
2023-02-16T00:26:21.201Z,-2.74
2023-02-16T00:28:54.215Z,-2.77
2023-02-16T00:31:24.202Z,-2.80
2023-02-16T00:33:53.026Z,-2.83
2023-02-16T00:36:24.168Z,-2.87
2023-02-16T00:38:52.455Z,-2.91
2023-02-16T00:41:42.024Z,-2.95
2023-02-16T00:44:14.907Z,-2.99
2023-02-16T00:46:44.105Z,-3.01
2023-02-16T00:49:16.589Z,-3.04
2023-02-16T00:51:44.656Z,-3.07
2023-02-16T00:54:13.341Z,-3.09
2023-02-16T00:56:43.444Z,-3.11
2023-02-16T00:59:16.856Z,-3.13
2023-02-16T01:01:45.079Z,-3.17
2023-02-16T01:04:18.749Z,-3.19
2023-02-16T01:07:05.442Z,-3.20
2023-02-16T01:09:52.558Z,-3.21
2023-02-16T01:12:22.067Z,-3.20
2023-02-16T01:14:54.301Z,-3.17
2023-02-16T01:17:24.662Z,-3.14
2023-02-16T01:19:55.084Z,-3.10
2023-02-16T01:22:24.079Z,-3.06
2023-02-16T01:24:52.566Z,-3.02
2023-02-16T01:27:20.531Z,-2.96
2023-02-16T01:29:48.502Z,-2.93
2023-02-16T01:32:17.495Z,-2.92
2023-02-16T01:34:45.568Z,-2.91
2023-02-16T01:37:16.626Z,-2.89
2023-02-16T01:39:45.818Z,-2.89
2023-02-16T01:42:16.138Z,-2.87
2023-02-16T01:44:47.173Z,-2.85
2023-02-16T01:47:30.194Z,-2.82
2023-02-16T01:50:00.793Z,-2.81
2023-02-16T01:52:34.566Z,-2.84
2023-02-16T01:55:08.242Z,-2.88
2023-02-16T01:57:48.697Z,-2.92
2023-02-16T02:00:17.793Z,-2.97
2023-02-16T02:03:16.494Z,-3.01
2023-02-16T02:05:45.070Z,-3.05
2023-02-16T02:08:31.880Z,-3.10
2023-02-16T02:11:00.812Z,-3.15
2023-02-16T02:13:36.251Z,-3.19
2023-02-16T02:16:05.572Z,-3.24
2023-02-16T02:18:33.809Z,-3.29
2023-02-16T02:21:27.671Z,-3.32
2023-02-16T02:24:19.907Z,-3.38
2023-02-16T02:27:07.441Z,-3.43
2023-02-16T02:29:58.844Z,-3.47
2023-02-16T02:32:51.640Z,-3.51
2023-02-16T02:35:30.243Z,-3.56
2023-02-16T02:38:05.774Z,-3.59
2023-02-16T02:40:55.179Z,-3.63
2023-02-16T02:43:24.341Z,-3.66
2023-02-16T02:45:56.619Z,-3.69
2023-02-16T02:48:30.543Z,-3.72
2023-02-16T02:51:20.198Z,-3.74
2023-02-16T02:54:11.722Z,-3.78
2023-02-16T02:57:02.324Z,-3.81
2023-02-16T02:59:51.183Z,-3.85
2023-02-16T03:02:23.388Z,-3.89
2023-02-16T03:04:53.984Z,-3.93
2023-02-16T03:07:43.173Z,-3.95
2023-02-16T03:10:29.552Z,-3.99
2023-02-16T03:12:58.043Z,-4.00
2023-02-16T03:15:27.844Z,-4.02
2023-02-16T03:18:15.787Z,-4.05
2023-02-16T03:21:05.248Z,-4.07
2023-02-16T03:23:52.374Z,-4.11
2023-02-16T03:26:39.488Z,-4.13
2023-02-16T03:29:24.887Z,-4.16
2023-02-16T03:31:54.195Z,-4.19
2023-02-16T03:34:22.854Z,-4.20
2023-02-16T03:36:52.767Z,-4.23
2023-02-16T03:39:20.940Z,-4.25
2023-02-16T03:41:50.687Z,-4.26
2023-02-16T03:44:19.445Z,-4.27
2023-02-16T03:46:49.691Z,-4.28
2023-02-16T03:49:18.145Z,-4.31
2023-02-16T03:51:46.727Z,-4.33
2023-02-16T03:54:16.032Z,-4.35
2023-02-16T03:56:44.309Z,-4.36
2023-02-16T03:59:12.449Z,-4.38
2023-02-16T04:01:40.553Z,-4.39
2023-02-16T04:04:08.859Z,-4.39
2023-02-16T04:06:37.212Z,-4.39
2023-02-16T04:09:05.286Z,-4.40
2023-02-16T04:11:51.906Z,-4.42
2023-02-16T04:14:20.179Z,-4.43
2023-02-16T04:16:48.469Z,-4.41
2023-02-16T04:19:16.622Z,-4.38
2023-02-16T04:21:44.812Z,-4.36
2023-02-16T04:24:12.747Z,-4.34
2023-02-16T04:26:40.836Z,-4.32
2023-02-16T04:29:08.913Z,-4.29
2023-02-16T04:31:37.069Z,-4.26
2023-02-16T04:34:05.298Z,-4.20
2023-02-16T04:36:34.652Z,-4.15
2023-02-16T04:39:02.844Z,-4.10
2023-02-16T04:41:31.107Z,-4.06
2023-02-16T04:43:59.176Z,-4.00
2023-02-16T04:46:27.415Z,-3.94
2023-02-16T04:48:55.745Z,-3.89
2023-02-16T04:51:24.006Z,-3.85
2023-02-16T04:53:52.999Z,-3.83
2023-02-16T04:56:20.983Z,-3.84
2023-02-16T04:58:49.293Z,-3.85
2023-02-16T05:01:21.633Z,-3.83
2023-02-16T05:03:50.200Z,-3.85
2023-02-16T05:06:18.785Z,-3.87
2023-02-16T05:08:47.076Z,-3.90
2023-02-16T05:11:34.079Z,-3.91
2023-02-16T05:14:21.095Z,-3.92
2023-02-16T05:16:49.590Z,-3.95
2023-02-16T05:19:17.651Z,-3.99
2023-02-16T05:21:45.616Z,-4.02
2023-02-16T05:24:13.551Z,-4.06
2023-02-16T05:26:43.099Z,-4.08
2023-02-16T05:29:11.165Z,-4.10
2023-02-16T05:31:39.425Z,-4.11
2023-02-16T05:34:07.922Z,-4.12
2023-02-16T05:36:35.843Z,-4.12
2023-02-16T05:39:04.172Z,-4.11
2023-02-16T05:41:32.656Z,-4.09
2023-02-16T05:44:02.062Z,-4.07
2023-02-16T05:46:32.715Z,-4.04
2023-02-16T05:49:00.979Z,-4.00
2023-02-16T05:51:30.005Z,-3.94
2023-02-16T05:53:58.139Z,-3.88
2023-02-16T05:56:26.414Z,-3.80
2023-02-16T05:58:54.488Z,-3.72
2023-02-16T06:01:22.717Z,-3.60
2023-02-16T06:03:51.324Z,-3.19
2023-02-16T06:06:19.324Z,-2.44
2023-02-16T06:08:47.744Z,-1.56
2023-02-16T06:11:34.373Z,-0.58
2023-02-16T06:14:16.608Z,0.53
2023-02-16T06:16:45.830Z,1.52
2023-02-16T06:19:14.290Z,2.36
2023-02-16T06:21:42.677Z,3.24
2023-02-16T06:24:11.869Z,4.15
2023-02-16T06:26:40.202Z,4.92
2023-02-16T06:29:08.834Z,5.45
2023-02-16T06:31:37.260Z,5.98
2023-02-16T06:34:05.930Z,6.67
2023-02-16T06:36:34.577Z,7.27
2023-02-16T06:39:03.063Z,7.87
2023-02-16T06:41:31.617Z,8.44
2023-02-16T06:44:07.600Z,8.93
2023-02-16T06:46:36.842Z,9.32
2023-02-16T06:49:05.486Z,9.45
2023-02-16T06:51:33.664Z,9.59
2023-02-16T06:54:01.937Z,9.70
2023-02-16T06:56:30.318Z,9.79
2023-02-16T06:58:58.821Z,9.80
2023-02-16T07:01:26.872Z,9.61
2023-02-16T07:03:56.485Z,9.32
2023-02-16T07:06:26.086Z,9.08
2023-02-16T07:08:54.569Z,8.75
2023-02-16T07:11:23.154Z,8.40
2023-02-16T07:13:51.324Z,8.06
2023-02-16T07:16:19.542Z,7.70
2023-02-16T07:18:48.088Z,7.32
2023-02-16T07:21:16.062Z,7.03
2023-02-16T07:23:44.432Z,6.91
2023-02-16T07:26:12.714Z,6.92
2023-02-16T07:28:40.987Z,6.86
2023-02-16T07:31:13.807Z,6.87
2023-02-16T07:33:42.351Z,7.02
2023-02-16T07:36:11.446Z,7.16
2023-02-16T07:38:41.391Z,7.22
2023-02-16T07:41:10.245Z,7.35
2023-02-16T07:43:39.485Z,7.33
2023-02-16T07:46:07.585Z,7.21
2023-02-16T07:48:36.124Z,7.20
2023-02-16T07:51:04.917Z,7.37
2023-02-16T07:53:33.183Z,7.65
2023-02-16T07:56:01.661Z,8.09
2023-02-16T07:58:30.084Z,8.53
2023-02-16T08:01:07.737Z,9.01
2023-02-16T08:03:35.903Z,9.61
2023-02-16T08:06:05.030Z,10.23
2023-02-16T08:08:33.575Z,10.69
2023-02-16T08:11:08.144Z,11.08
2023-02-16T08:13:36.793Z,11.64
2023-02-16T08:16:08.881Z,11.80
2023-02-16T08:18:37.448Z,11.70
2023-02-16T08:21:14.475Z,11.76
2023-02-16T08:24:01.873Z,12.01
2023-02-16T08:26:34.743Z,12.49
2023-02-16T08:29:03.016Z,13.03
2023-02-16T08:31:33.017Z,13.64
2023-02-16T08:34:03.161Z,14.00
2023-02-16T08:36:34.192Z,14.28
2023-02-16T08:39:06.614Z,14.87
2023-02-16T08:41:36.338Z,15.29
2023-02-16T08:44:05.884Z,15.45
2023-02-16T08:46:34.703Z,15.63
2023-02-16T08:49:03.365Z,15.99
2023-02-16T08:51:36.470Z,16.26
2023-02-16T08:54:06.070Z,16.29
2023-02-16T08:56:34.578Z,16.28
2023-02-16T08:59:02.728Z,16.16
2023-02-16T09:01:31.032Z,16.22
2023-02-16T09:03:59.340Z,16.38
2023-02-16T09:06:27.656Z,16.46
2023-02-16T09:08:57.155Z,16.35
2023-02-16T09:11:25.723Z,16.24
2023-02-16T09:13:54.004Z,16.14
2023-02-16T09:16:22.975Z,16.07
2023-02-16T09:18:52.093Z,15.98
2023-02-16T09:21:21.597Z,15.86
2023-02-16T09:23:50.594Z,15.66
2023-02-16T09:26:19.486Z,15.51
2023-02-16T09:28:48.930Z,15.45
2023-02-16T09:31:17.052Z,15.32
2023-02-16T09:33:46.932Z,15.15
2023-02-16T09:36:15.256Z,15.20
2023-02-16T09:38:43.636Z,15.55
2023-02-16T09:41:30.565Z,15.90
2023-02-16T09:44:08.139Z,16.19
2023-02-16T09:46:37.047Z,16.29
2023-02-16T09:49:06.026Z,16.27
2023-02-16T09:51:37.492Z,16.05
2023-02-16T09:54:10.059Z,15.96
2023-02-16T09:56:41.197Z,15.90
2023-02-16T09:59:28.635Z,15.91
2023-02-16T10:02:02.438Z,15.87
2023-02-16T10:04:39.098Z,15.87
2023-02-16T10:07:07.690Z,15.74
2023-02-16T10:09:36.476Z,15.69
2023-02-16T10:12:08.134Z,15.85
2023-02-16T10:14:47.266Z,15.84
2023-02-16T10:17:15.448Z,15.88
2023-02-16T10:19:56.216Z,15.86
2023-02-16T10:22:31.276Z,15.86
2023-02-16T10:25:02.393Z,15.89
2023-02-16T10:27:41.117Z,15.82
2023-02-16T10:30:12.189Z,15.74
2023-02-16T10:32:54.191Z,15.79
2023-02-16T10:35:29.757Z,15.98
2023-02-16T10:37:57.872Z,16.21
2023-02-16T10:40:34.558Z,16.49
2023-02-16T10:43:21.271Z,16.49
2023-02-16T10:45:52.742Z,16.20
2023-02-16T10:48:22.520Z,16.05
2023-02-16T10:51:04.939Z,15.86
2023-02-16T10:53:36.796Z,15.65
2023-02-16T10:56:23.912Z,15.58
2023-02-16T10:58:53.008Z,15.50
2023-02-16T11:01:27.550Z,15.38
2023-02-16T11:03:55.623Z,15.31
2023-02-16T11:06:25.948Z,15.41
2023-02-16T11:09:01.080Z,15.38
2023-02-16T11:11:36.165Z,15.37
2023-02-16T11:14:09.614Z,15.41
2023-02-16T11:16:38.183Z,15.30
2023-02-16T11:19:07.901Z,15.17
2023-02-16T11:21:43.547Z,15.07
2023-02-16T11:24:13.360Z,14.95
2023-02-16T11:26:41.945Z,14.75
2023-02-16T11:29:20.055Z,14.63
2023-02-16T11:31:48.347Z,14.37
2023-02-16T11:34:29.415Z,14.14
2023-02-16T11:37:06.391Z,13.98
2023-02-16T11:39:39.488Z,13.76
2023-02-16T11:42:10.512Z,13.62
2023-02-16T11:44:47.187Z,13.59
2023-02-16T11:47:30.356Z,13.66
2023-02-16T11:50:34.330Z,13.82
2023-02-16T11:53:08.232Z,13.94
2023-02-16T11:55:37.530Z,13.96
2023-02-16T11:58:17.897Z,13.96
2023-02-16T12:01:02.930Z,13.92
2023-02-16T12:03:34.434Z,13.85
2023-02-16T12:06:08.968Z,13.74
2023-02-16T12:08:43.082Z,13.70
2023-02-16T12:11:11.335Z,13.84
2023-02-16T12:13:58.257Z,14.02
2023-02-16T12:16:34.393Z,14.19
2023-02-16T12:19:24.696Z,14.25
2023-02-16T12:22:06.898Z,14.22
2023-02-16T12:24:36.028Z,14.17
2023-02-16T12:27:06.419Z,14.14
2023-02-16T12:29:46.169Z,14.16
2023-02-16T12:32:32.872Z,14.08
2023-02-16T12:35:19.794Z,13.93
2023-02-16T12:37:48.090Z,13.92
2023-02-16T12:40:22.281Z,13.84
2023-02-16T12:42:50.554Z,13.71
2023-02-16T12:45:21.694Z,13.59
2023-02-16T12:47:56.790Z,13.57
2023-02-16T12:50:27.979Z,13.54
2023-02-16T12:53:14.314Z,13.46
2023-02-16T12:55:56.580Z,13.42
2023-02-16T12:58:36.640Z,13.30
2023-02-16T13:01:17.446Z,13.20
2023-02-16T13:04:04.391Z,13.11
2023-02-16T13:06:33.996Z,13.01
2023-02-16T13:09:05.296Z,12.93
2023-02-16T13:11:36.362Z,12.82
2023-02-16T13:14:07.059Z,12.64
2023-02-16T13:16:38.425Z,12.53
2023-02-16T13:19:06.483Z,12.46
2023-02-16T13:24:52.756Z,12.40
2023-02-16T13:25:46.453Z,12.49
2023-02-16T13:27:21.005Z,12.26
2023-02-16T13:30:01.683Z,12.20
2023-02-16T13:32:55.236Z,12.16
2023-02-16T13:35:40.180Z,12.05
2023-02-16T13:38:11.432Z,11.87
2023-02-16T13:40:58.593Z,11.72
2023-02-16T13:43:35.015Z,11.57
2023-02-16T13:46:07.552Z,11.49
2023-02-16T13:48:47.556Z,11.38
2023-02-16T13:51:18.487Z,11.31
2023-02-16T13:53:56.076Z,11.20
2023-02-16T13:56:30.935Z,11.04
2023-02-16T13:59:34.411Z,10.90
2023-02-16T14:02:02.818Z,10.76
2023-02-16T14:04:30.906Z,10.66
2023-02-16T14:07:07.125Z,10.57
2023-02-16T14:09:37.969Z,10.45
2023-02-16T14:12:11.770Z,10.32
2023-02-16T14:14:42.630Z,10.20
2023-02-16T14:17:19.847Z,10.14
2023-02-16T14:20:06.869Z,10.09
2023-02-16T14:22:39.487Z,10.02
2023-02-16T14:25:20.050Z,9.95
2023-02-16T14:27:49.967Z,9.86
2023-02-16T14:30:29.101Z,9.77
2023-02-16T14:33:12.841Z,9.70
2023-02-16T14:35:42.056Z,9.62
2023-02-16T14:38:16.357Z,9.55
2023-02-16T14:41:01.015Z,9.48
2023-02-16T14:43:40.494Z,9.39
2023-02-16T14:46:08.577Z,9.32
2023-02-16T14:48:36.698Z,9.25
2023-02-16T14:51:17.675Z,9.17
2023-02-16T14:54:02.742Z,9.09
2023-02-16T14:56:37.731Z,9.01
2023-02-16T14:59:12.459Z,8.94
2023-02-16T15:01:44.707Z,8.87
2023-02-16T15:04:12.952Z,8.79
2023-02-16T15:06:46.972Z,8.73
2023-02-16T15:09:17.085Z,8.66
2023-02-16T15:12:11.573Z,8.59
2023-02-16T15:14:48.089Z,8.51
2023-02-16T15:17:25.533Z,8.44
2023-02-16T15:19:55.347Z,8.36
2023-02-16T15:22:25.574Z,8.29
2023-02-16T15:25:01.801Z,8.21
2023-02-16T15:27:30.011Z,8.11
2023-02-16T15:30:04.986Z,8.02
2023-02-16T15:32:33.523Z,7.92
2023-02-16T15:35:12.554Z,7.84
2023-02-16T15:37:40.675Z,7.75
2023-02-16T15:40:27.788Z,7.68
2023-02-16T15:42:59.194Z,7.59
2023-02-16T15:45:29.316Z,7.51
2023-02-16T15:48:13.568Z,7.42
2023-02-16T15:50:42.882Z,7.34
2023-02-16T15:53:12.576Z,7.25
2023-02-16T15:55:47.448Z,7.17
2023-02-16T15:58:15.788Z,7.07
2023-02-16T16:00:45.215Z,6.98
2023-02-16T16:03:17.678Z,6.89
2023-02-16T16:06:06.971Z,6.82
2023-02-16T16:08:35.929Z,6.73
2023-02-16T16:11:04.499Z,6.66
2023-02-16T16:13:33.035Z,6.59
2023-02-16T16:16:07.141Z,6.53
2023-02-16T16:18:37.733Z,6.46
2023-02-16T16:21:37.120Z,6.40
2023-02-16T16:24:06.653Z,6.35
2023-02-16T16:26:36.219Z,6.30
2023-02-16T16:29:04.326Z,6.23
2023-02-16T16:31:34.034Z,6.18
2023-02-16T16:34:07.267Z,6.14
2023-02-16T16:36:53.732Z,6.10
2023-02-16T16:39:23.829Z,6.03
2023-02-16T16:41:57.988Z,5.98
2023-02-16T16:44:39.975Z,5.92
2023-02-16T16:47:26.285Z,5.84
2023-02-16T16:49:56.698Z,5.78
2023-02-16T16:52:39.408Z,5.73
2023-02-16T16:55:19.978Z,5.67
2023-02-16T16:57:49.386Z,5.63
2023-02-16T17:00:18.271Z,5.58
2023-02-16T17:02:46.444Z,5.53
2023-02-16T17:05:14.618Z,5.51
2023-02-16T17:07:43.094Z,5.49
2023-02-16T17:10:11.174Z,5.46
2023-02-16T17:12:39.403Z,5.46
2023-02-16T17:15:09.041Z,5.46
2023-02-16T17:17:38.659Z,5.47
2023-02-16T17:20:13.555Z,5.49
2023-02-16T17:22:41.637Z,5.49
2023-02-16T17:25:09.838Z,5.49
2023-02-16T17:27:38.219Z,5.49
2023-02-16T17:30:06.724Z,5.46
2023-02-16T17:32:35.332Z,5.44
2023-02-16T17:35:04.350Z,5.41
2023-02-16T17:37:33.096Z,5.37
2023-02-16T17:40:01.858Z,5.32
2023-02-16T17:42:30.142Z,5.26
2023-02-16T17:44:58.305Z,5.20
2023-02-16T17:47:26.685Z,5.16
2023-02-16T17:49:55.376Z,5.13
2023-02-16T17:52:25.404Z,5.10
2023-02-16T17:54:53.766Z,5.07
2023-02-16T17:57:21.740Z,5.06
2023-02-16T17:59:49.814Z,5.03
2023-02-16T18:02:18.189Z,5.01
2023-02-16T18:04:46.464Z,5.00
2023-02-16T18:07:15.695Z,5.02
2023-02-16T18:09:44.246Z,5.04
2023-02-16T18:12:13.035Z,5.07
2023-02-16T18:14:41.209Z,5.10
2023-02-16T18:17:12.560Z,5.13
2023-02-16T18:19:40.628Z,5.14
2023-02-16T18:22:08.813Z,5.15
2023-02-16T18:24:36.829Z,5.14
2023-02-16T18:27:05.479Z,5.12
2023-02-16T18:29:33.636Z,5.09
2023-02-16T18:32:03.296Z,5.05
2023-02-16T18:34:32.898Z,5.01
2023-02-16T18:37:01.370Z,4.96
2023-02-16T18:39:29.455Z,4.93
2023-02-16T18:41:57.555Z,4.89
2023-02-16T18:44:25.840Z,4.85
2023-02-16T18:46:54.091Z,4.81
2023-02-16T18:49:22.039Z,4.77
2023-02-16T18:51:50.129Z,4.72
2023-02-16T18:54:18.468Z,4.68
2023-02-16T18:56:47.688Z,4.63
2023-02-16T18:59:15.839Z,4.58
2023-02-16T19:01:44.738Z,4.51
2023-02-16T19:04:13.032Z,4.45
2023-02-16T19:06:41.177Z,4.39
2023-02-16T19:09:09.252Z,4.36
2023-02-16T19:11:37.532Z,4.33
2023-02-16T19:14:07.074Z,4.30
2023-02-16T19:16:35.611Z,4.27
2023-02-16T19:19:03.784Z,4.24
2023-02-16T19:21:32.059Z,4.23
2023-02-16T19:24:00.077Z,4.21
2023-02-16T19:26:28.408Z,4.19
2023-02-16T19:28:56.789Z,4.17
2023-02-16T19:31:29.669Z,4.15
2023-02-16T19:33:59.390Z,4.17
2023-02-16T19:36:30.058Z,4.19
2023-02-16T19:38:58.704Z,4.20
2023-02-16T19:41:28.411Z,4.22
2023-02-16T19:43:59.637Z,4.24
2023-02-16T19:46:28.313Z,4.26
2023-02-16T19:48:57.741Z,4.28
2023-02-16T19:51:26.530Z,4.30
2023-02-16T19:53:54.603Z,4.32
